Time;durP1;ratioP1;P1;durP2;ratioP2;P2;SDS_P1;SDS_P2;PMS_P1;PMS_P2;Temp;Humidity;BMP_temperature;BMP_pressure;BME280_temperature;BME280_humidity;BME280_pressure;Samples;Min_cycle;Max_cycle;Signal;HPM_P1;HPM_P2
2022/05/15 00:02:29;;;;;;;;;;;;;;;;;;5055638;28;19963;-44
2022/05/15 00:04:55;;;;;;;;;;;;;;;;;;5055248;28;19916;-44
2022/05/15 00:07:20;;;;;;;;;;;;;;;;;;5055557;28;19927;-43
2022/05/15 00:09:45;;;;;;;;;;;;;;;;;;5055421;28;20352;-43
2022/05/15 00:12:10;;;;;;;;;;;;;;;;;;5055412;28;19909;-42
2022/05/15 00:14:35;;;;;;;;;;;;;;;;;;5055321;28;19909;-43
2022/05/15 00:17:00;;;;;;;;;;;;;;;;;;5055300;28;19908;-43
2022/05/15 00:19:25;;;;;;;;;;;;;;;;;;5055048;28;20360;-43
2022/05/15 00:21:51;;;;;;;;;;;;;;;;;;5054994;28;19952;-43
2022/05/15 00:24:16;;;;;;;;;;;;;;;;;;5054608;28;19920;-43
2022/05/15 00:26:41;;;;;;;;;;;;;;;;;;5055291;28;19966;-46
2022/05/15 00:29:06;;;;;;;;;;;;;;;;;;5055161;28;19913;-43
2022/05/15 00:31:32;;;;;;;;;;;;;;;;;;5055398;28;19916;-44
2022/05/15 00:33:57;;;;;;;;;;;;;;;;;;5055110;28;19916;-43
2022/05/15 00:36:22;;;;;;;;;;;;;;;;;;5054831;28;20303;-42
2022/05/15 00:38:47;;;;;;;;;;;;;;;;;;5054876;28;19925;-43
2022/05/15 00:41:12;;;;;;;;;;;;;;;;;;5054836;28;19909;-42
2022/05/15 00:43:37;;;;;;;;;;;;;;;;;;5054875;28;19908;-44
2022/05/15 00:46:02;;;;;;;;;;;;;;;;;;5054648;28;20003;-43
2022/05/15 00:48:27;;;;;;;;;;;;;;;;;;5054815;28;20012;-42
2022/05/15 00:50:52;;;;;;;;;;;;;;;;;;5054802;28;19909;-43
2022/05/15 00:53:18;;;;;;;;;;;;;;;;;;5054595;28;20414;-43
2022/05/15 00:55:43;;;;;;;;;;;;;;;;;;5054441;28;20011;-43
2022/05/15 00:58:08;;;;;;;;;;;;;;;;;;5054766;28;20368;-42
2022/05/15 01:00:33;;;;;;;;;;;;;;;;;;5054476;28;19909;-42
2022/05/15 01:02:58;;;;;;;;;;;;;;;;;;5054775;28;19905;-44
2022/05/15 01:05:23;;;;;;;;;;;;;;;;;;5054688;28;20264;-44
2022/05/15 01:07:48;;;;;;;;;;;;;;;;;;5057061;28;19932;-43
2022/05/15 01:10:13;;;;;;;;;;;;;;;;;;5058880;28;19909;-43
2022/05/15 01:12:40;;;;;;;;;;;;;;;;;;5059129;28;19905;-42
2022/05/15 01:15:05;;;;;;;;;;;;;;;;;;5058827;28;19925;-43
2022/05/15 01:17:30;;;;;;;;;;;;;;;;;;5058302;28;19909;-43
2022/05/15 01:19:55;;;;;;;;;;;;;;;;;;5058525;28;20003;-43
2022/05/15 01:22:22;;;;;;;;;;;;;;;;;;5058723;28;20359;-43
2022/05/15 01:24:47;;;;;;;;;;;;;;;;;;5058269;28;19924;-43
2022/05/15 01:27:12;;;;;;;;;;;;;;;;;;5057246;28;19963;-43
2022/05/15 01:29:37;;;;;;;;;;;;;;;;;;5058500;28;19909;-42
2022/05/15 01:32:03;;;;;;;;;;;;;;;;;;5058748;28;19909;-44
2022/05/15 01:34:28;;;;;;;;;;;;;;;;;;5058380;28;20437;-43
2022/05/15 01:36:53;;;;;;;;;;;;;;;;;;5057141;28;19913;-43
2022/05/15 01:39:18;;;;;;;;;;;;;;;;;;5057846;28;19916;-42
2022/05/15 01:41:43;;;;;;;;;;;;;;;;;;5057695;28;20011;-43
2022/05/15 01:44:08;;;;;;;;;;;;;;;;;;5058186;28;19913;-42
2022/05/15 01:46:33;;;;;;;;;;;;;;;;;;5058054;28;19909;-42
2022/05/15 01:48:59;;;;;;;;;;;;;;;;;;5058080;28;19912;-42
2022/05/15 01:51:24;;;;;;;;;;;;;;;;;;5058151;28;19963;-43
2022/05/15 01:53:49;;;;;;;;;;;;;;;;;;5057760;28;19917;-43
2022/05/15 01:56:14;;;;;;;;;;;;;;;;;;5057548;28;19912;-42
2022/05/15 01:58:40;;;;;;;;;;;;;;;;;;5058202;28;19909;-43
2022/05/15 02:01:05;;;;;;;;;;;;;;;;;;5058225;28;20256;-43
2022/05/15 02:03:30;;;;;;;;;;;;;;;;;;5058081;28;20263;-43
2022/05/15 02:05:55;;;;;;;;;;;;;;;;;;5057781;28;20357;-42
2022/05/15 02:08:20;;;;;;;;;;;;;;;;;;5058031;28;19999;-43
2022/05/15 02:10:45;;;;;;;;;;;;;;;;;;5057684;28;19999;-42
2022/05/15 02:13:11;;;;;;;;;;;;;;;;;;5057552;28;20380;-44
2022/05/15 02:15:36;;;;;;;;;;;;;;;;;;5057580;28;19916;-44
2022/05/15 02:18:02;;;;;;;;;;;;;;;;;;5055687;28;20387;-43
2022/05/15 02:20:27;;;;;;;;;;;;;;;;;;5057543;28;19913;-42
2022/05/15 02:22:52;;;;;;;;;;;;;;;;;;5057634;28;19935;-42
2022/05/15 02:25:17;;;;;;;;;;;;;;;;;;5056534;28;19939;-42
2022/05/15 02:27:42;;;;;;;;;;;;;;;;;;5057217;28;19975;-42
2022/05/15 02:30:08;;;;;;;;;;;;;;;;;;5057036;28;19927;-42
2022/05/15 02:32:33;;;;;;;;;;;;;;;;;;5057206;28;19909;-43
2022/05/15 02:34:58;;;;;;;;;;;;;;;;;;5056997;28;19909;-42
2022/05/15 02:37:23;;;;;;;;;;;;;;;;;;5057225;28;19909;-42
2022/05/15 02:39:48;;;;;;;;;;;;;;;;;;5056906;28;19909;-43
2022/05/15 02:42:13;;;;;;;;;;;;;;;;;;5056965;28;19908;-42
2022/05/15 02:44:38;;;;;;;;;;;;;;;;;;5056997;28;19920;-43
2022/05/15 02:47:03;;;;;;;;;;;;;;;;;;5057100;28;19991;-44
2022/05/15 02:52:12;;;;;;;;;;;;;;;;;;5057315;28;19931;-42
2022/05/15 02:54:37;;;;;;;;;;;;;;;;;;5056345;28;20371;-42
2022/05/15 02:57:02;;;;;;;;;;;;;;;;;;5056733;28;20350;-43
2022/05/15 02:59:27;;;;;;;;;;;;;;;;;;5056830;28;20283;-42
2022/05/15 03:01:53;;;;;;;;;;;;;;;;;;5056623;28;19909;-42
2022/05/15 03:04:18;;;;;;;;;;;;;;;;;;5056533;28;19912;-43
2022/05/15 03:06:43;;;;;;;;;;;;;;;;;;5056397;28;19916;-43
2022/05/15 03:09:08;;;;;;;;;;;;;;;;;;5056382;28;19912;-43
2022/05/15 03:11:33;;;;;;;;;;;;;;;;;;5056327;28;20003;-42
2022/05/15 03:13:58;;;;;;;;;;;;;;;;;;5056325;28;19993;-43
2022/05/15 03:16:26;;;;;;;;;;;;;;;;;;5056231;28;19905;-42
2022/05/15 03:18:51;;;;;;;;;;;;;;;;;;5055974;28;19925;-43
2022/05/15 03:21:28;;;;;;;;;;;;;;;;;;5056090;28;20418;-42
2022/05/15 03:23:53;;;;;;;;;;;;;;;;;;5055585;28;19920;-44
2022/05/15 03:26:18;;;;;;;;;;;;;;;;;;5056122;28;19909;-42
2022/05/15 03:28:43;;;;;;;;;;;;;;;;;;5055648;28;20340;-44
2022/05/15 03:31:08;;;;;;;;;;;;;;;;;;5056112;28;20272;-42
2022/05/15 03:33:34;;;;;;;;;;;;;;;;;;5055197;28;19913;-43
2022/05/15 03:35:59;;;;;;;;;;;;;;;;;;5056126;28;19909;-42
2022/05/15 03:38:24;;;;;;;;;;;;;;;;;;5056073;28;19908;-43
2022/05/15 03:40:49;;;;;;;;;;;;;;;;;;5055953;28;19909;-42
2022/05/15 03:43:14;;;;;;;;;;;;;;;;;;5055830;28;19909;-42
2022/05/15 03:45:39;;;;;;;;;;;;;;;;;;5055742;28;20279;-42
2022/05/15 03:48:04;;;;;;;;;;;;;;;;;;5055776;28;19916;-42
2022/05/15 03:50:29;;;;;;;;;;;;;;;;;;5055681;28;20107;-42
2022/05/15 03:52:55;;;;;;;;;;;;;;;;;;5055434;28;19909;-43
2022/05/15 03:55:20;;;;;;;;;;;;;;;;;;5054294;28;19924;-42
2022/05/15 03:57:45;;;;;;;;;;;;;;;;;;5055787;28;19909;-42
2022/05/15 04:00:10;;;;;;;;;;;;;;;;;;5055459;28;19999;-42
2022/05/15 04:02:37;;;;;;;;;;;;;;;;;;5055483;28;20375;-43
2022/05/15 04:05:02;;;;;;;;;;;;;;;;;;5055668;28;19916;-42
2022/05/15 04:07:27;;;;;;;;;;;;;;;;;;5055350;28;20287;-42
2022/05/15 04:09:52;;;;;;;;;;;;;;;;;;5055329;28;20248;-42
2022/05/15 04:12:17;;;;;;;;;;;;;;;;;;5055210;28;19912;-42
2022/05/15 04:14:42;;;;;;;;;;;;;;;;;;5055213;28;19909;-43
2022/05/15 04:17:07;;;;;;;;;;;;;;;;;;5055163;28;20322;-43
2022/05/15 04:19:32;;;;;;;;;;;;;;;;;;5054962;28;19928;-43
2022/05/15 04:22:02;;;;;;;;;;;;;;;;;;5055018;28;19908;-43
2022/05/15 04:24:27;;;;;;;;;;;;;;;;;;5054565;28;19951;-42
2022/05/15 04:26:52;;;;;;;;;;;;;;;;;;5054514;28;19913;-42
2022/05/15 04:29:17;;;;;;;;;;;;;;;;;;5055003;28;19909;-42
2022/05/15 04:31:43;;;;;;;;;;;;;;;;;;5054880;28;19908;-42
2022/05/15 04:34:08;;;;;;;;;;;;;;;;;;5054854;28;20279;-42
2022/05/15 04:36:33;;;;;;;;;;;;;;;;;;5054830;28;19927;-43
2022/05/15 04:38:58;;;;;;;;;;;;;;;;;;5054847;28;19909;-43
2022/05/15 04:41:23;;;;;;;;;;;;;;;;;;5053959;28;19905;-42
2022/05/15 04:43:49;;;;;;;;;;;;;;;;;;5054510;28;19932;-42
2022/05/15 04:46:14;;;;;;;;;;;;;;;;;;5054924;28;19980;-44
2022/05/15 04:48:39;;;;;;;;;;;;;;;;;;5054825;28;19916;-42
2022/05/15 04:51:04;;;;;;;;;;;;;;;;;;5054605;28;19916;-42
2022/05/15 04:53:30;;;;;;;;;;;;;;;;;;5054631;28;20360;-42
2022/05/15 04:55:55;;;;;;;;;;;;;;;;;;5054673;28;19963;-43
2022/05/15 04:58:20;;;;;;;;;;;;;;;;;;5054723;28;19916;-42
2022/05/15 05:00:45;;;;;;;;;;;;;;;;;;5054549;28;19916;-42
2022/05/15 05:03:10;;;;;;;;;;;;;;;;;;5054472;28;19912;-43
2022/05/15 05:05:36;;;;;;;;;;;;;;;;;;5054337;28;19913;-42
2022/05/15 05:08:01;;;;;;;;;;;;;;;;;;5054176;28;20348;-42
2022/05/15 05:10:26;;;;;;;;;;;;;;;;;;5054494;28;19909;-43
2022/05/15 05:12:51;;;;;;;;;;;;;;;;;;5054551;28;19913;-43
2022/05/15 05:15:16;;;;;;;;;;;;;;;;;;5054630;28;20293;-43
2022/05/15 05:17:41;;;;;;;;;;;;;;;;;;5054316;28;19915;-43
2022/05/15 05:20:06;;;;;;;;;;;;;;;;;;5054419;28;20283;-43
2022/05/15 05:22:32;;;;;;;;;;;;;;;;;;5054541;28;19943;-43
2022/05/15 05:24:57;;;;;;;;;;;;;;;;;;5054121;28;19989;-43
2022/05/15 05:27:23;;;;;;;;;;;;;;;;;;5054196;28;19909;-43
2022/05/15 05:29:48;;;;;;;;;;;;;;;;;;5053037;28;19909;-43
2022/05/15 05:32:14;;;;;;;;;;;;;;;;;;5054345;28;19962;-42
2022/05/15 05:34:39;;;;;;;;;;;;;;;;;;5054435;28;19909;-42
2022/05/15 05:37:04;;;;;;;;;;;;;;;;;;5054089;28;19909;-43
2022/05/15 05:39:29;;;;;;;;;;;;;;;;;;5053843;28;19954;-43
2022/05/15 05:41:54;;;;;;;;;;;;;;;;;;5052734;28;19916;-43
2022/05/15 05:44:20;;;;;;;;;;;;;;;;;;5054185;28;20029;-43
2022/05/15 05:46:45;;;;;;;;;;;;;;;;;;5054044;28;20359;-43
2022/05/15 05:49:10;;;;;;;;;;;;;;;;;;5054027;28;19913;-42
2022/05/15 05:51:36;;;;;;;;;;;;;;;;;;5053976;28;20352;-44
2022/05/15 05:54:01;;;;;;;;;;;;;;;;;;5057507;28;20267;-43
2022/05/15 05:56:26;;;;;;;;;;;;;;;;;;5057728;28;19913;-43
2022/05/15 05:58:51;;;;;;;;;;;;;;;;;;5057500;28;19921;-43
2022/05/15 06:01:17;;;;;;;;;;;;;;;;;;5058228;28;19905;-43
2022/05/15 06:06:26;;;;;;;;;;;;;;;;;;5057745;28;19920;-43
2022/05/15 06:08:51;;;;;;;;;;;;;;;;;;5057257;28;19909;-43
2022/05/15 06:11:16;;;;;;;;;;;;;;;;;;5057369;28;19978;-42
2022/05/15 06:13:41;;;;;;;;;;;;;;;;;;5056952;28;19913;-44
2022/05/15 06:16:06;;;;;;;;;;;;;;;;;;5057331;28;19908;-43
2022/05/15 06:18:31;;;;;;;;;;;;;;;;;;5063627;23;19924;-43
2022/05/15 06:20:56;;;;;;;;;;;;;;;;;;5057147;28;19917;-44
2022/05/15 06:23:21;;;;;;;;;;;;;;;;;;5057111;28;20381;-43
2022/05/15 06:25:47;;;;;;;;;;;;;;;;;;5056443;28;20282;-43
2022/05/15 06:28:12;;;;;;;;;;;;;;;;;;5057208;28;19915;-45
2022/05/15 06:30:37;;;;;;;;;;;;;;;;;;5057006;28;19916;-43
2022/05/15 06:33:02;;;;;;;;;;;;;;;;;;5056889;28;20391;-44
2022/05/15 06:35:27;;;;;;;;;;;;;;;;;;5056760;28;20307;-44
2022/05/15 06:37:52;;;;;;;;;;;;;;;;;;5056786;28;19909;-43
2022/05/15 06:40:17;;;;;;;;;;;;;;;;;;5056782;28;19932;-43
2022/05/15 06:42:42;;;;;;;;;;;;;;;;;;5056728;28;19909;-44
2022/05/15 06:45:07;;;;;;;;;;;;;;;;;;5056626;28;19913;-43
2022/05/15 06:47:32;;;;;;;;;;;;;;;;;;5056543;28;19909;-44
2022/05/15 06:49:58;;;;;;;;;;;;;;;;;;5056397;28;19908;-43
2022/05/15 06:52:23;;;;;;;;;;;;;;;;;;5056695;28;20287;-44
2022/05/15 06:54:49;;;;;;;;;;;;;;;;;;5056580;28;19913;-43
2022/05/15 06:57:29;;;;;;;;;;;;;;;;;;5056524;28;19912;-44
2022/05/15 06:59:54;;;;;;;;;;;;;;;;;;5056453;28;20355;-43
2022/05/15 07:02:19;;;;;;;;;;;;;;;;;;5056557;28;19905;-43
2022/05/15 07:04:45;;;;;;;;;;;;;;;;;;5055418;28;19920;-44
2022/05/15 07:07:10;;;;;;;;;;;;;;;;;;5056331;28;20423;-43
2022/05/15 07:09:35;;;;;;;;;;;;;;;;;;5056244;28;19916;-43
2022/05/15 07:12:00;;;;;;;;;;;;;;;;;;5056222;28;19913;-44
2022/05/15 07:14:25;;;;;;;;;;;;;;;;;;5056419;28;19919;-45
2022/05/15 07:16:51;;;;;;;;;;;;;;;;;;5056177;28;19908;-44
2022/05/15 07:19:16;;;;;;;;;;;;;;;;;;5055903;28;20381;-43
2022/05/15 07:21:41;;;;;;;;;;;;;;;;;;5056063;28;19919;-44
2022/05/15 07:24:06;;;;;;;;;;;;;;;;;;5055871;28;20402;-44
2022/05/15 07:26:32;;;;;;;;;;;;;;;;;;5054575;28;19912;-44
2022/05/15 07:28:57;;;;;;;;;;;;;;;;;;5055763;28;19909;-44
2022/05/15 07:31:22;;;;;;;;;;;;;;;;;;5055816;28;19913;-44
2022/05/15 07:33:47;;;;;;;;;;;;;;;;;;5055789;28;19920;-44
2022/05/15 07:36:12;;;;;;;;;;;;;;;;;;5055434;28;20264;-45
2022/05/15 07:38:37;;;;;;;;;;;;;;;;;;5055790;28;19909;-45
2022/05/15 07:41:02;;;;;;;;;;;;;;;;;;5055674;28;19916;-44
2022/05/15 07:43:27;;;;;;;;;;;;;;;;;;5055511;28;19920;-43
2022/05/15 07:45:53;;;;;;;;;;;;;;;;;;5055483;28;19920;-46
2022/05/15 07:48:18;;;;;;;;;;;;;;;;;;5055702;28;19908;-45
2022/05/15 07:50:43;;;;;;;;;;;;;;;;;;5055553;28;20279;-44
2022/05/15 07:53:08;;;;;;;;;;;;;;;;;;5055471;28;20287;-45
2022/05/15 07:55:33;;;;;;;;;;;;;;;;;;5055116;28;19908;-44
2022/05/15 07:57:58;;;;;;;;;;;;;;;;;;5048378;28;20264;-44
2022/05/15 08:00:24;;;;;;;;;;;;;;;;;;5036320;28;19909;-44
2022/05/15 08:02:49;;;;;;;;;;;;;;;;;;5036446;28;19963;-44
2022/05/15 08:08:00;;;;;;;;;;;;;;;;;;5035485;28;19915;-44
2022/05/15 08:10:26;;;;;;;;;;;;;;;;;;5035459;28;19924;-44
2022/05/15 08:12:51;;;;;;;;;;;;;;;;;;5035314;28;20323;-44
2022/05/15 08:15:17;;;;;;;;;;;;;;;;;;5035457;28;20296;-44
2022/05/15 08:17:42;;;;;;;;;;;;;;;;;;5035185;28;21398;-44
2022/05/15 08:25:35;;;;;;;;;;;;;;;;;;5048252;28;19931;-44
2022/05/15 08:28:00;;;;;;;;;;;;;;;;;;5054787;28;20011;-44
2022/05/15 08:30:26;;;;;;;;;;;;;;;;;;5055203;28;19909;-44
2022/05/15 08:32:51;;;;;;;;;;;;;;;;;;5055268;28;19947;-44
2022/05/15 08:35:18;;;;;;;;;;;;;;;;;;5054879;28;19905;-44
2022/05/15 08:37:43;;;;;;;;;;;;;;;;;;5055156;28;19909;-44
2022/05/15 08:40:09;;;;;;;;;;;;;;;;;;5054751;28;19908;-44
2022/05/15 08:42:34;;;;;;;;;;;;;;;;;;5054963;28;19909;-44
2022/05/15 08:44:59;;;;;;;;;;;;;;;;;;5055042;28;20328;-44
2022/05/15 08:47:26;;;;;;;;;;;;;;;;;;5055132;28;19931;-44
2022/05/15 08:49:51;;;;;;;;;;;;;;;;;;5054818;28;19974;-45
2022/05/15 08:52:16;;;;;;;;;;;;;;;;;;5054909;28;20314;-44
2022/05/15 08:54:41;;;;;;;;;;;;;;;;;;5054762;28;19920;-44
2022/05/15 08:57:06;;;;;;;;;;;;;;;;;;5054598;28;19917;-44
2022/05/15 08:59:32;;;;;;;;;;;;;;;;;;5054817;28;19913;-44
2022/05/15 09:01:57;;;;;;;;;;;;;;;;;;5055096;28;19909;-44
2022/05/15 09:04:22;;;;;;;;;;;;;;;;;;5054598;28;20340;-44
2022/05/15 09:06:48;;;;;;;;;;;;;;;;;;5054607;28;19909;-44
2022/05/15 09:09:13;;;;;;;;;;;;;;;;;;5054952;28;19909;-45
2022/05/15 09:11:39;;;;;;;;;;;;;;;;;;5054933;28;19916;-44
2022/05/15 09:14:07;;;;;;;;;;;;;;;;;;5055017;28;19999;-44
2022/05/15 09:16:32;;;;;;;;;;;;;;;;;;5054613;28;19909;-45
2022/05/15 09:18:57;;;;;;;;;;;;;;;;;;5054605;28;19920;-45
2022/05/15 09:21:22;;;;;;;;;;;;;;;;;;5054893;28;19909;-44
2022/05/15 09:23:47;;;;;;;;;;;;;;;;;;5069878;28;20020;-45
2022/05/15 09:26:12;;;;;;;;;;;;;;;;;;5054546;28;20363;-45
2022/05/15 09:28:37;;;;;;;;;;;;;;;;;;5058007;28;20015;-45
2022/05/15 09:31:02;;;;;;;;;;;;;;;;;;5058543;28;19909;-44
2022/05/15 09:33:27;;;;;;;;;;;;;;;;;;5058466;28;19909;-45
2022/05/15 09:35:53;;;;;;;;;;;;;;;;;;5058438;28;19909;-44
2022/05/15 09:38:27;;;;;;;;;;;;;;;;;;5073264;28;19909;-44
2022/05/15 09:43:36;;;;;;;;;;;;;;;;;;5058150;28;20328;-45
2022/05/15 09:46:01;;;;;;;;;;;;;;;;;;5057643;28;19999;-45
2022/05/15 09:48:26;;;;;;;;;;;;;;;;;;5057961;28;20398;-44
2022/05/15 09:50:51;;;;;;;;;;;;;;;;;;5057827;28;19913;-44
2022/05/15 09:53:16;;;;;;;;;;;;;;;;;;5056493;28;19991;-45
2022/05/15 09:55:41;;;;;;;;;;;;;;;;;;5058169;28;20012;-45
2022/05/15 09:58:06;;;;;;;;;;;;;;;;;;5057664;28;20016;-45
2022/05/15 10:00:31;;;;;;;;;;;;;;;;;;5056344;28;20341;-45
2022/05/15 10:03:03;;;;;;;;;;;;;;;;;;5057460;28;19940;-45
2022/05/15 10:05:28;;;;;;;;;;;;;;;;;;5057380;28;19963;-45
2022/05/15 10:07:53;;;;;;;;;;;;;;;;;;5072705;28;19913;-46
2022/05/15 10:10:18;;;;;;;;;;;;;;;;;;5057328;28;20344;-46
2022/05/15 10:12:44;;;;;;;;;;;;;;;;;;5057486;28;19916;-45
2022/05/15 10:15:09;;;;;;;;;;;;;;;;;;5057308;28;19909;-45
2022/05/15 10:17:34;;;;;;;;;;;;;;;;;;5057132;28;20485;-44
2022/05/15 10:20:00;;;;;;;;;;;;;;;;;;5072410;28;20368;-45
2022/05/15 10:22:25;;;;;;;;;;;;;;;;;;5057080;28;19939;-45
2022/05/15 10:24:51;;;;;;;;;;;;;;;;;;5056912;28;19920;-44
2022/05/15 10:27:16;;;;;;;;;;;;;;;;;;5054142;28;20318;-45
2022/05/15 10:29:41;;;;;;;;;;;;;;;;;;5057098;28;19909;-44
2022/05/15 10:32:06;;;;;;;;;;;;;;;;;;5057137;28;19913;-44
2022/05/15 10:34:32;;;;;;;;;;;;;;;;;;5056887;28;20015;-44
2022/05/15 10:36:57;;;;;;;;;;;;;;;;;;5056874;28;20004;-44
2022/05/15 10:39:22;;;;;;;;;;;;;;;;;;5055702;28;20283;-45
2022/05/15 10:41:48;;;;;;;;;;;;;;;;;;5056903;28;19952;-47
2022/05/15 10:44:13;;;;;;;;;;;;;;;;;;5056632;28;19916;-45
2022/05/15 10:46:38;;;;;;;;;;;;;;;;;;5046175;28;20008;-47
2022/05/15 10:49:03;;;;;;;;;;;;;;;;;;5036706;28;20257;-44
2022/05/15 10:51:28;;;;;;;;;;;;;;;;;;5036607;28;19910;-45
2022/05/15 10:59:21;;;;;;;;;;;;;;;;;;5056614;28;19916;-43
2022/05/15 11:01:46;;;;;;;;;;;;;;;;;;5056454;28;19912;-45
2022/05/15 11:04:11;;;;;;;;;;;;;;;;;;5052279;28;19913;-44
2022/05/15 11:06:36;;;;;;;;;;;;;;;;;;5041230;28;20352;-44
2022/05/15 11:09:02;;;;;;;;;;;;;;;;;;5054434;28;20363;-45
2022/05/15 11:11:27;;;;;;;;;;;;;;;;;;5054443;28;19909;-45
2022/05/15 11:13:52;;;;;;;;;;;;;;;;;;5056147;28;19909;-44
2022/05/15 11:16:18;;;;;;;;;;;;;;;;;;5056151;28;19920;-45
2022/05/15 11:18:43;;;;;;;;;;;;;;;;;;5055929;28;19920;-45
2022/05/15 11:21:08;;;;;;;;;;;;;;;;;;5056043;28;19908;-47
2022/05/15 11:23:33;;;;;;;;;;;;;;;;;;5055666;28;20367;-42
2022/05/15 11:25:58;;;;;;;;;;;;;;;;;;5055646;28;20288;-45
2022/05/15 11:28:23;;;;;;;;;;;;;;;;;;5056046;28;20303;-44
2022/05/15 11:30:48;;;;;;;;;;;;;;;;;;5055812;28;19913;-45
2022/05/15 11:33:13;;;;;;;;;;;;;;;;;;5055786;28;19911;-45
2022/05/15 11:35:39;;;;;;;;;;;;;;;;;;5055152;28;19919;-45
2022/05/15 11:38:04;;;;;;;;;;;;;;;;;;5055753;28;19915;-45
2022/05/15 11:40:29;;;;;;;;;;;;;;;;;;5055571;28;19963;-44
2022/05/15 11:42:54;;;;;;;;;;;;;;;;;;5055599;28;20004;-45
2022/05/15 11:45:20;;;;;;;;;;;;;;;;;;5055453;28;19966;-44
2022/05/15 11:47:45;;;;;;;;;;;;;;;;;;5055593;28;19975;-45
2022/05/15 11:50:10;;;;;;;;;;;;;;;;;;5055075;28;20355;-44
2022/05/15 11:52:37;;;;;;;;;;;;;;;;;;5055301;28;19909;-45
2022/05/15 11:55:02;;;;;;;;;;;;;;;;;;5055053;28;19995;-45
2022/05/15 11:57:27;;;;;;;;;;;;;;;;;;5054519;28;19920;-44
2022/05/15 11:59:52;;;;;;;;;;;;;;;;;;5055264;28;19916;-46
2022/05/15 12:02:17;;;;;;;;;;;;;;;;;;5054658;28;19920;-45
2022/05/15 12:04:42;;;;;;;;;;;;;;;;;;5054966;28;20286;-45
2022/05/15 12:07:07;;;;;;;;;;;;;;;;;;5055116;28;19932;-44
2022/05/15 12:09:33;;;;;;;;;;;;;;;;;;5055192;28;19913;-44
2022/05/15 12:12:00;;;;;;;;;;;;;;;;;;5055249;28;19909;-44
2022/05/15 12:14:25;;;;;;;;;;;;;;;;;;5055249;28;19909;-45
2022/05/15 12:16:51;;;;;;;;;;;;;;;;;;5054950;28;19908;-44
2022/05/15 12:19:16;;;;;;;;;;;;;;;;;;5054665;28;19921;-45
2022/05/15 12:21:41;;;;;;;;;;;;;;;;;;5054956;28;19913;-45
2022/05/15 12:26:50;;;;;;;;;;;;;;;;;;5054597;28;19939;-44
2022/05/15 12:29:15;;;;;;;;;;;;;;;;;;5054793;28;19991;-45
2022/05/15 12:31:41;;;;;;;;;;;;;;;;;;5054926;28;19920;-43
2022/05/15 12:34:06;;;;;;;;;;;;;;;;;;5054770;28;19913;-44
2022/05/15 12:36:32;;;;;;;;;;;;;;;;;;5054678;28;19909;-44
2022/05/15 12:38:57;;;;;;;;;;;;;;;;;;5054688;28;19909;-44
2022/05/15 12:41:22;;;;;;;;;;;;;;;;;;5054706;28;19909;-44
2022/05/15 12:43:50;;;;;;;;;;;;;;;;;;5054399;28;19909;-44
2022/05/15 12:46:15;;;;;;;;;;;;;;;;;;5054460;28;19913;-44
2022/05/15 12:48:41;;;;;;;;;;;;;;;;;;5054614;28;20387;-45
2022/05/15 12:51:07;;;;;;;;;;;;;;;;;;5054462;28;19917;-44
2022/05/15 12:53:32;;;;;;;;;;;;;;;;;;5054673;28;19909;-46
2022/05/15 12:55:57;;;;;;;;;;;;;;;;;;5054280;28;19936;-45
2022/05/15 12:58:23;;;;;;;;;;;;;;;;;;5054487;28;20332;-45
2022/05/15 13:00:48;;;;;;;;;;;;;;;;;;5052796;28;19959;-45
2022/05/15 13:03:13;;;;;;;;;;;;;;;;;;5053743;28;19935;-45
2022/05/15 13:05:38;;;;;;;;;;;;;;;;;;5054224;28;20409;-45
2022/05/15 13:08:03;;;;;;;;;;;;;;;;;;5055775;28;20244;-44
2022/05/15 13:10:30;;;;;;;;;;;;;;;;;;5056514;28;19931;-44
2022/05/15 13:12:55;;;;;;;;;;;;;;;;;;5056542;28;19935;-44
2022/05/15 13:15:20;;;;;;;;;;;;;;;;;;5069701;28;19909;-45
2022/05/15 13:17:45;;;;;;;;;;;;;;;;;;5054249;28;20321;-44
2022/05/15 13:20:10;;;;;;;;;;;;;;;;;;5054141;28;20019;-44
2022/05/15 13:22:35;;;;;;;;;;;;;;;;;;5054118;28;19909;-45
2022/05/15 13:25:00;;;;;;;;;;;;;;;;;;5053876;28;19916;-43
2022/05/15 13:27:26;;;;;;;;;;;;;;;;;;5054261;28;20357;-44
2022/05/15 13:29:51;;;;;;;;;;;;;;;;;;5054114;28;19962;-45
2022/05/15 13:32:17;;;;;;;;;;;;;;;;;;5054136;28;19955;-45
2022/05/15 13:34:42;;;;;;;;;;;;;;;;;;5054122;28;19905;-44
2022/05/15 13:37:07;;;;;;;;;;;;;;;;;;5069570;28;19916;-44
2022/05/15 13:45:00;;;;;;;;;;;;;;;;;;5054067;28;19959;-44
2022/05/15 13:47:25;;;;;;;;;;;;;;;;;;5053967;28;20348;-44
2022/05/15 13:49:52;;;;;;;;;;;;;;;;;;5053988;28;20322;-44
2022/05/15 13:52:17;;;;;;;;;;;;;;;;;;5053850;28;20042;-44
2022/05/15 13:54:42;;;;;;;;;;;;;;;;;;5069129;28;19988;-45
2022/05/15 13:57:08;;;;;;;;;;;;;;;;;;5053910;28;19920;-45
2022/05/15 13:59:34;;;;;;;;;;;;;;;;;;5053828;28;19915;-44
2022/05/15 14:01:59;;;;;;;;;;;;;;;;;;5053991;28;19964;-44
2022/05/15 14:04:25;;;;;;;;;;;;;;;;;;5053841;28;19909;-45
2022/05/15 14:06:50;;;;;;;;;;;;;;;;;;5053891;28;19909;-44
2022/05/15 14:09:15;;;;;;;;;;;;;;;;;;5053932;28;20272;-45
2022/05/15 14:11:40;;;;;;;;;;;;;;;;;;5053889;28;19978;-45
2022/05/15 14:14:05;;;;;;;;;;;;;;;;;;5055895;28;19963;-44
2022/05/15 14:16:30;;;;;;;;;;;;;;;;;;5057175;28;19920;-45
2022/05/15 14:18:55;;;;;;;;;;;;;;;;;;5053519;28;19943;-45
2022/05/15 14:21:21;;;;;;;;;;;;;;;;;;5057213;28;19916;-44
2022/05/15 14:23:46;;;;;;;;;;;;;;;;;;5056736;28;19936;-45
2022/05/15 14:26:11;;;;;;;;;;;;;;;;;;5056731;28;19967;-46
2022/05/15 14:28:38;;;;;;;;;;;;;;;;;;5057055;28;20003;-44
2022/05/15 14:31:03;;;;;;;;;;;;;;;;;;5056959;28;20279;-44
2022/05/15 14:33:29;;;;;;;;;;;;;;;;;;5056954;28;20377;-45
2022/05/15 14:35:54;;;;;;;;;;;;;;;;;;5056707;28;20306;-46
2022/05/15 14:38:19;;;;;;;;;;;;;;;;;;5056830;28;19916;-45
2022/05/15 14:40:44;;;;;;;;;;;;;;;;;;5056866;28;20406;-46
2022/05/15 14:43:09;;;;;;;;;;;;;;;;;;5056699;28;19913;-45
2022/05/15 14:45:34;;;;;;;;;;;;;;;;;;5056685;28;20359;-47
2022/05/15 14:47:59;;;;;;;;;;;;;;;;;;5056751;28;19944;-45
2022/05/15 14:50:24;;;;;;;;;;;;;;;;;;5056734;28;19916;-45
2022/05/15 14:52:49;;;;;;;;;;;;;;;;;;5056607;28;19916;-45
2022/05/15 14:56:07;;;;;;;;;;;;;;;;;;5056026;28;19913;-44
2022/05/15 14:58:09;;;;;;;;;;;;;;;;;;5036392;28;19913;-45
2022/05/15 15:00:34;;;;;;;;;;;;;;;;;;5036486;28;19909;-45
2022/05/15 15:02:59;;;;;;;;;;;;;;;;;;5036506;28;19916;-45
2022/05/15 15:05:24;;;;;;;;;;;;;;;;;;5036312;28;19920;-45
2022/05/15 15:07:49;;;;;;;;;;;;;;;;;;5036640;28;20331;-44
2022/05/15 15:10:14;;;;;;;;;;;;;;;;;;5036424;28;19938;-45
2022/05/15 15:12:39;;;;;;;;;;;;;;;;;;5039324;28;19912;-45
2022/05/15 15:15:05;;;;;;;;;;;;;;;;;;5056130;28;19909;-44
2022/05/15 15:17:31;;;;;;;;;;;;;;;;;;5056227;28;20253;-44
2022/05/15 15:19:56;;;;;;;;;;;;;;;;;;5055864;28;19944;-45
2022/05/15 15:22:22;;;;;;;;;;;;;;;;;;5056037;28;19913;-44
2022/05/15 15:24:47;;;;;;;;;;;;;;;;;;5054110;28;20314;-44
2022/05/15 15:27:12;;;;;;;;;;;;;;;;;;5055932;28;20372;-45
2022/05/15 15:29:37;;;;;;;;;;;;;;;;;;5055955;28;19924;-44
2022/05/15 15:32:02;;;;;;;;;;;;;;;;;;5055784;28;20383;-45
2022/05/15 15:34:27;;;;;;;;;;;;;;;;;;5055803;28;20326;-44
2022/05/15 15:38:14;;;;;;;;;;;;;;;;;;5055739;28;19909;-48
2022/05/15 15:39:38;;;;;;;;;;;;;;;;;;5055746;28;20360;-44
2022/05/15 15:42:03;;;;;;;;;;;;;;;;;;5055655;28;19905;-44
2022/05/15 15:44:29;;;;;;;;;;;;;;;;;;5055571;28;19909;-45
2022/05/15 15:46:54;;;;;;;;;;;;;;;;;;5055455;28;19909;-44
2022/05/15 15:49:19;;;;;;;;;;;;;;;;;;5055508;28;19932;-45
2022/05/15 15:51:44;;;;;;;;;;;;;;;;;;5055469;28;19913;-45
2022/05/15 15:54:09;;;;;;;;;;;;;;;;;;5070580;28;19917;-48
2022/05/15 15:56:35;;;;;;;;;;;;;;;;;;5055360;28;20274;-45
2022/05/15 15:59:00;;;;;;;;;;;;;;;;;;5055289;28;19912;-45
2022/05/15 16:01:25;;;;;;;;;;;;;;;;;;5055333;28;20004;-45
2022/05/15 16:03:50;;;;;;;;;;;;;;;;;;5055250;28;19916;-46
2022/05/15 16:06:18;;;;;;;;;;;;;;;;;;5054970;28;19919;-46
2022/05/15 16:08:43;;;;;;;;;;;;;;;;;;5055229;28;19909;-48
2022/05/15 16:11:08;;;;;;;;;;;;;;;;;;5055103;28;20378;-45
2022/05/15 16:13:33;;;;;;;;;;;;;;;;;;5055096;28;20011;-45
2022/05/15 16:15:58;;;;;;;;;;;;;;;;;;5055091;28;19908;-46
2022/05/15 16:18:23;;;;;;;;;;;;;;;;;;5054871;28;20003;-46
2022/05/15 16:20:48;;;;;;;;;;;;;;;;;;5054921;28;19951;-45
2022/05/15 16:23:13;;;;;;;;;;;;;;;;;;5054660;28;20003;-46
2022/05/15 16:25:39;;;;;;;;;;;;;;;;;;5053800;28;19969;-46
2022/05/15 16:28:04;;;;;;;;;;;;;;;;;;5054525;28;19966;-47
2022/05/15 16:30:29;;;;;;;;;;;;;;;;;;5070289;28;20311;-45
2022/05/15 16:32:54;;;;;;;;;;;;;;;;;;5054656;28;19917;-47
2022/05/15 16:35:19;;;;;;;;;;;;;;;;;;5054783;28;19913;-45
2022/05/15 16:37:45;;;;;;;;;;;;;;;;;;5053777;28;19963;-47
2022/05/15 16:40:11;;;;;;;;;;;;;;;;;;5054618;28;19970;-45
2022/05/15 16:42:36;;;;;;;;;;;;;;;;;;5054619;28;20000;-44
2022/05/15 16:45:01;;;;;;;;;;;;;;;;;;5054518;28;19978;-44
2022/05/15 16:47:26;;;;;;;;;;;;;;;;;;5054457;28;20370;-47
2022/05/15 16:49:54;;;;;;;;;;;;;;;;;;5053855;28;19924;-45
2022/05/15 16:52:20;;;;;;;;;;;;;;;;;;5054585;28;19913;-45
2022/05/15 16:54:45;;;;;;;;;;;;;;;;;;5054149;28;19936;-46
2022/05/15 16:57:10;;;;;;;;;;;;;;;;;;5054438;28;20486;-45
2022/05/15 16:59:35;;;;;;;;;;;;;;;;;;5054337;28;20038;-45
2022/05/15 17:02:00;;;;;;;;;;;;;;;;;;5054361;28;19996;-45
2022/05/15 17:04:25;;;;;;;;;;;;;;;;;;5054305;28;19909;-45